createdAt,value
2018-10-11T00:04:41.116Z,23.63
2018-10-11T00:09:43.635Z,23.50
2018-10-11T00:14:46.138Z,23.03
2018-10-11T00:19:49.334Z,18.60
2018-10-11T00:24:51.843Z,22.53
2018-10-11T00:29:54.370Z,21.97
2018-10-11T00:34:56.974Z,22.87
2018-10-11T00:39:59.592Z,22.33
2018-10-11T00:45:02.130Z,20.20
2018-10-11T00:50:04.752Z,18.67
2018-10-11T00:55:07.412Z,18.77
2018-10-11T01:00:09.944Z,20.77
2018-10-11T01:05:12.435Z,20.60
2018-10-11T01:10:14.933Z,20.07
2018-10-11T01:15:17.444Z,21.20
2018-10-11T01:20:20.040Z,17.90
2018-10-11T01:25:22.543Z,18.90
2018-10-11T01:30:25.452Z,23.40
2018-10-11T01:35:27.959Z,28.40
2018-10-11T01:40:30.556Z,31.27
2018-10-11T01:45:33.964Z,24.90
2018-10-11T01:50:36.534Z,21.20
2018-10-11T01:55:39.112Z,14.10
2018-10-11T02:00:41.634Z,16.30
2018-10-11T02:05:44.155Z,13.27
2018-10-11T02:10:46.667Z,12.37
2018-10-11T02:15:49.182Z,11.47
2018-10-11T02:20:51.682Z,11.33
2018-10-11T02:25:56.291Z,13.50
2018-10-11T02:30:58.799Z,11.73
2018-10-11T02:36:02.375Z,11.43
2018-10-11T02:41:04.963Z,10.90
2018-10-11T02:46:07.499Z,11.83
2018-10-11T02:51:10.019Z,13.00
2018-10-11T02:56:12.863Z,13.53
2018-10-11T03:01:17.077Z,20.50
2018-10-11T03:06:19.693Z,24.03
2018-10-11T03:11:22.283Z,28.80
2018-10-11T03:16:24.862Z,30.10
2018-10-11T03:21:27.443Z,32.17
2018-10-11T03:26:29.976Z,42.27
2018-10-11T03:31:32.514Z,40.83
2018-10-11T03:36:35.091Z,28.67
2018-10-11T03:41:37.779Z,30.30
2018-10-11T03:46:40.504Z,28.90
2018-10-11T03:51:43.027Z,24.30
2018-10-11T03:56:45.536Z,29.53
2018-10-11T04:01:48.059Z,29.20
2018-10-11T04:06:50.596Z,35.03
2018-10-11T04:11:53.178Z,38.37
2018-10-11T04:16:55.733Z,40.43
2018-10-11T04:21:58.250Z,40.60
2018-10-11T04:27:00.751Z,40.57
2018-10-11T04:32:03.319Z,40.87
2018-10-11T04:37:06.439Z,42.40
2018-10-11T04:42:09.692Z,47.47
2018-10-11T04:47:12.215Z,48.47
2018-10-11T04:52:14.760Z,50.03
2018-10-11T04:57:18.780Z,44.53
2018-10-11T05:02:21.315Z,48.10
2018-10-11T05:07:23.845Z,56.90
2018-10-11T05:12:26.443Z,52.70
2018-10-11T05:17:29.096Z,61.50
2018-10-11T05:22:31.579Z,53.20
2018-10-11T05:27:34.213Z,62.43
2018-10-11T05:32:37.075Z,50.37
2018-10-11T05:37:39.623Z,64.43
2018-10-11T05:42:42.778Z,67.20
2018-10-11T05:47:45.978Z,65.53
2018-10-11T05:52:48.613Z,60.67
2018-10-11T05:57:51.329Z,69.83
2018-10-11T06:02:59.564Z,68.63
2018-10-11T06:08:02.493Z,54.37
2018-10-11T06:13:06.430Z,55.13
2018-10-11T06:18:10.388Z,65.20
2018-10-11T06:23:13.153Z,61.73
2018-10-11T06:28:15.755Z,62.77
2018-10-11T06:33:18.450Z,58.47
2018-10-11T06:38:21.156Z,57.50
2018-10-11T06:43:23.752Z,53.13
2018-10-11T06:48:26.449Z,51.10
2018-10-11T06:53:29.049Z,42.70
2018-10-11T06:58:31.564Z,49.53
2018-10-11T07:03:34.092Z,48.80
2018-10-11T07:08:36.707Z,49.53
2018-10-11T07:13:39.226Z,41.63
2018-10-11T07:18:41.751Z,36.20
2018-10-11T07:23:45.180Z,31.97
2018-10-11T07:28:47.839Z,32.67
2018-10-11T07:33:50.384Z,35.53
2018-10-11T07:38:53.055Z,28.63
2018-10-11T07:43:55.551Z,30.97
2018-10-11T07:48:58.068Z,28.87
2018-10-11T07:54:00.980Z,27.53
2018-10-11T07:59:03.575Z,23.77
2018-10-11T08:04:06.121Z,21.93
2018-10-11T08:09:08.708Z,22.00
2018-10-11T08:14:11.202Z,19.57
2018-10-11T08:19:13.947Z,16.93
2018-10-11T08:24:16.280Z,18.00
2018-10-11T08:29:18.754Z,15.63
2018-10-11T08:34:22.003Z,21.57
2018-10-11T08:39:24.527Z,16.03
2018-10-11T08:44:27.024Z,12.13
2018-10-11T08:49:29.515Z,12.60
2018-10-11T08:54:37.643Z,12.23
2018-10-11T08:59:40.208Z,10.63
2018-10-11T09:04:42.760Z,11.33
2018-10-11T09:09:45.323Z,12.30
2018-10-11T09:14:47.907Z,10.73
2018-10-11T09:19:50.422Z,8.13
2018-10-11T09:24:52.966Z,10.10
2018-10-11T09:29:55.855Z,6.60
2018-10-11T09:34:58.396Z,6.80
2018-10-11T09:40:00.912Z,7.63
2018-10-11T09:45:03.463Z,6.70
2018-10-11T09:50:06.167Z,7.97
2018-10-11T09:55:08.744Z,8.90
2018-10-11T10:00:17.048Z,6.83
2018-10-11T10:05:19.574Z,6.60
2018-10-11T10:10:22.083Z,6.10
2018-10-11T10:15:24.644Z,5.83
2018-10-11T10:20:27.146Z,5.93
2018-10-11T10:25:29.667Z,7.57
2018-10-11T10:30:37.659Z,11.43
2018-10-11T10:35:40.175Z,10.63
2018-10-11T10:40:43.415Z,7.47
2018-10-11T10:45:46.011Z,8.13
2018-10-11T10:50:48.525Z,7.23
2018-10-11T10:55:51.047Z,8.60
2018-10-11T11:00:53.568Z,7.63
2018-10-11T11:05:56.104Z,10.27
2018-10-11T11:10:58.592Z,8.27
2018-10-11T11:16:01.165Z,7.53
2018-10-11T11:21:03.712Z,8.13
2018-10-11T11:26:06.247Z,8.43
2018-10-11T11:31:08.824Z,8.93
2018-10-11T11:36:11.344Z,8.20
2018-10-11T11:41:13.929Z,7.87
2018-10-11T11:46:16.472Z,7.57
2018-10-11T11:51:19.026Z,7.50
2018-10-11T11:56:21.578Z,6.60
2018-10-11T12:01:24.190Z,5.90
2018-10-11T12:06:26.691Z,6.25
2018-10-11T12:11:29.209Z,5.95
2018-10-11T12:16:31.737Z,6.33
2018-10-11T12:21:34.253Z,5.83
2018-10-11T12:26:37.260Z,6.08
2018-10-11T12:31:39.849Z,6.30
2018-10-11T12:36:42.399Z,5.67
2018-10-11T12:41:45.306Z,7.27
2018-10-11T12:46:47.838Z,5.73
2018-10-11T12:51:50.507Z,7.10
2018-10-11T12:56:53.183Z,6.10
2018-10-11T13:01:55.582Z,8.77
2018-10-11T13:06:58.160Z,8.80
2018-10-11T13:12:01.128Z,8.13
2018-10-11T13:17:03.876Z,8.47
2018-10-11T13:22:06.431Z,7.17
2018-10-11T13:27:08.965Z,7.17
2018-10-11T13:32:11.491Z,8.73
2018-10-11T13:37:14.027Z,9.83
2018-10-11T13:42:16.549Z,6.53
2018-10-11T13:47:19.068Z,11.57
2018-10-11T13:52:22.512Z,6.10
2018-10-11T13:57:26.846Z,9.47
2018-10-11T14:02:26.760Z,7.10
2018-10-11T14:07:29.304Z,8.73
2018-10-11T14:12:31.880Z,8.33
2018-10-11T14:17:34.441Z,8.17
2018-10-11T14:22:36.967Z,9.23
2018-10-11T14:27:40.306Z,8.93
2018-10-11T14:32:42.825Z,8.50
2018-10-11T14:37:45.346Z,7.50
2018-10-11T14:42:47.921Z,7.87
2018-10-11T14:47:50.491Z,9.43
2018-10-11T14:52:53.007Z,8.83
2018-10-11T14:57:55.546Z,7.00
2018-10-11T15:02:58.210Z,7.77
2018-10-11T15:08:00.701Z,7.77
2018-10-11T15:13:03.678Z,6.87
2018-10-11T15:18:06.599Z,10.27
2018-10-11T15:23:09.133Z,10.03
2018-10-11T15:28:11.687Z,8.57
2018-10-11T15:33:14.224Z,8.20
2018-10-11T15:38:16.799Z,9.53
2018-10-11T15:43:19.344Z,8.90
2018-10-11T15:48:21.874Z,9.73
2018-10-11T15:53:24.584Z,10.93
2018-10-11T15:58:27.174Z,11.55
2018-10-11T16:03:29.701Z,8.50
2018-10-11T16:08:32.325Z,8.10
2018-10-11T16:13:34.843Z,11.67
2018-10-11T16:18:37.479Z,8.63
2018-10-11T16:23:40.029Z,12.73
2018-10-11T16:28:43.260Z,11.80
2018-10-11T16:33:46.013Z,15.03
2018-10-11T16:38:48.585Z,7.80
2018-10-11T16:43:51.120Z,8.77
2018-10-11T16:48:53.813Z,11.60
2018-10-11T16:53:56.361Z,11.53
2018-10-11T16:58:59.487Z,8.63
2018-10-11T17:04:02.155Z,11.93
2018-10-11T17:09:07.382Z,11.23
2018-10-11T17:14:09.899Z,10.10
2018-10-11T17:19:12.441Z,8.37
2018-10-11T17:24:14.970Z,14.77
2018-10-11T17:29:17.495Z,11.67
2018-10-11T17:34:20.039Z,11.07
2018-10-11T17:39:22.618Z,9.67
2018-10-11T17:44:25.187Z,12.00
2018-10-11T17:49:27.740Z,11.07
2018-10-11T17:54:30.335Z,9.87
2018-10-11T17:59:33.125Z,9.90
2018-10-11T18:04:35.636Z,12.03
2018-10-11T18:09:38.183Z,7.70
2018-10-11T18:14:40.719Z,12.50
2018-10-11T18:19:43.276Z,14.83
2018-10-11T18:24:45.805Z,13.10
2018-10-11T18:29:48.337Z,13.13
2018-10-11T18:34:50.881Z,14.10
2018-10-11T18:39:53.545Z,8.57
2018-10-11T18:44:56.137Z,11.60
2018-10-11T18:49:58.684Z,8.50
2018-10-11T18:55:01.284Z,9.77
2018-10-11T19:00:05.005Z,12.03
2018-10-11T19:05:07.621Z,17.10
2018-10-11T19:10:10.194Z,15.67
2018-10-11T19:15:12.761Z,12.87
2018-10-11T19:20:15.333Z,11.37
2018-10-11T19:25:17.916Z,9.80
2018-10-11T19:30:20.759Z,10.03
2018-10-11T19:35:23.275Z,12.03
2018-10-11T19:40:25.871Z,10.53
2018-10-11T19:45:28.477Z,13.50
2018-10-11T19:50:31.053Z,16.43
2018-10-11T19:55:33.923Z,14.40
2018-10-11T20:00:36.453Z,17.37
2018-10-11T20:05:39.038Z,15.93
2018-10-11T20:10:41.584Z,12.90
2018-10-11T20:15:44.121Z,15.37
2018-10-11T20:20:46.664Z,12.53
2018-10-11T20:25:49.400Z,11.37
2018-10-11T20:30:51.946Z,13.33
2018-10-11T20:35:54.500Z,12.13
2018-10-11T20:40:57.100Z,10.13
2018-10-11T20:45:59.672Z,9.47
2018-10-11T20:51:02.332Z,12.03
2018-10-11T20:56:04.884Z,15.77
2018-10-11T21:01:07.407Z,11.70
2018-10-11T21:06:10.057Z,23.23
2018-10-11T21:11:12.659Z,20.70
2018-10-11T21:16:15.258Z,15.07
2018-10-11T21:21:17.804Z,8.17
2018-10-11T21:26:20.401Z,14.23
2018-10-11T21:31:22.942Z,9.10
2018-10-11T21:36:25.481Z,9.63
2018-10-11T21:41:28.052Z,6.67
2018-10-11T21:46:30.595Z,7.40
2018-10-11T21:51:33.144Z,6.63
2018-10-11T21:56:35.707Z,7.57
2018-10-11T22:01:38.257Z,5.73
2018-10-11T22:06:40.820Z,5.40
2018-10-11T22:11:43.344Z,10.17
2018-10-11T22:16:46.007Z,18.10
2018-10-11T22:21:48.542Z,16.83
2018-10-11T22:26:51.060Z,12.87
2018-10-11T22:31:53.735Z,11.77
2018-10-11T22:36:56.298Z,12.60
2018-10-11T22:41:58.867Z,10.63
2018-10-11T22:47:01.472Z,14.53
2018-10-11T22:52:04.092Z,10.90
2018-10-11T22:57:06.619Z,14.93
2018-10-11T23:02:09.237Z,10.97
2018-10-11T23:07:11.782Z,11.43
2018-10-11T23:12:14.292Z,12.90
2018-10-11T23:17:16.811Z,16.07
2018-10-11T23:22:19.360Z,12.60
2018-10-11T23:32:26.206Z,18.40
2018-10-11T23:37:28.699Z,16.37
2018-10-11T23:42:31.195Z,14.83
2018-10-11T23:47:33.711Z,12.73
2018-10-11T23:52:36.224Z,11.60
2018-10-11T23:57:38.745Z,19.63
